Time;durP1;ratioP1;P1;durP2;ratioP2;P2;SDS_P1;SDS_P2;PMS_P1;PMS_P2;Temp;Humidity;BMP_temperature;BMP_pressure;BME280_temperature;BME280_humidity;BME280_pressure;Samples;Min_cycle;Max_cycle;Signal;HPM_P1;HPM_P2
2023/01/23 00:01:33;;;;;;;22.17;11.07;;;2.70;99.90;;;;;;5064588;28;20127;-62
2023/01/23 00:04:00;;;;;;;21.15;10.32;;;2.70;99.90;;;;;;5051928;28;20080;-62
2023/01/23 00:06:27;;;;;;;21.42;10.18;;;2.60;99.90;;;;;;5067581;28;20059;-62
2023/01/23 00:08:55;;;;;;;21.90;11.07;;;2.60;99.90;;;;;;5056473;28;20076;-59
2023/01/23 00:11:25;;;;;;;27.90;11.23;;;2.60;99.90;;;;;;5058726;28;20053;-61
2023/01/23 00:13:52;;;;;;;23.02;11.57;;;2.70;99.90;;;;;;5063088;28;20493;-63
2023/01/23 00:16:21;;;;;;;24.83;12.18;;;2.70;99.90;;;;;;5051059;28;20100;-61
2023/01/23 00:18:48;;;;;;;21.98;11.57;;;2.70;99.90;;;;;;5059367;28;20138;-62
2023/01/23 00:21:16;;;;;;;20.58;11.00;;;2.60;99.90;;;;;;5061863;28;20128;-60
2023/01/23 00:23:43;;;;;;;18.58;10.45;;;2.60;99.90;;;;;;5064684;28;20131;-60
2023/01/23 00:26:14;;;;;;;21.08;10.60;;;2.60;99.90;;;;;;5069665;28;20143;-62
2023/01/23 00:28:42;;;;;;;22.65;10.63;;;2.60;99.90;;;;;;5068363;28;20481;-63
2023/01/23 00:31:11;;;;;;;19.88;9.32;;;2.60;99.90;;;;;;5052290;28;20049;-62
2023/01/23 00:33:38;;;;;;;20.40;10.45;;;2.70;99.90;;;;;;5070811;28;20060;-63
2023/01/23 00:36:06;;;;;;;25.85;11.48;;;2.60;99.90;;;;;;5068057;28;20126;-61
2023/01/23 00:38:32;;;;;;;23.98;11.60;;;2.60;99.90;;;;;;5067224;28;20079;-63
2023/01/23 00:41:01;;;;;;;20.15;11.35;;;2.60;99.90;;;;;;5056523;28;20102;-58
2023/01/23 00:43:28;;;;;;;20.55;10.50;;;2.60;99.90;;;;;;5064746;28;20052;-63
2023/01/23 00:45:56;;;;;;;22.40;10.82;;;2.60;99.90;;;;;;5051876;28;20080;-62
2023/01/23 00:48:23;;;;;;;21.92;11.25;;;2.60;99.90;;;;;;5052404;28;20065;-57
2023/01/23 00:50:49;;;;;;;31.67;12.38;;;2.60;99.90;;;;;;5061786;28;20088;-58
2023/01/23 00:53:16;;;;;;;27.48;12.75;;;2.60;99.90;;;;;;5060914;28;20111;-57
2023/01/23 00:55:43;;;;;;;21.90;11.07;;;2.60;99.90;;;;;;5062631;28;20064;-61
2023/01/23 00:58:10;;;;;;;25.75;11.93;;;2.60;99.90;;;;;;5050513;28;20096;-58
2023/01/23 01:00:37;;;;;;;26.25;11.95;;;2.60;99.90;;;;;;5054731;28;20052;-62
2023/01/23 01:03:05;;;;;;;30.30;12.70;;;2.70;99.90;;;;;;5066837;28;20088;-63
2023/01/23 01:05:32;;;;;;;29.92;12.75;;;2.60;99.90;;;;;;5074814;28;20385;-63
2023/01/23 01:07:59;;;;;;;28.42;12.50;;;2.60;99.90;;;;;;5066733;28;20105;-62
2023/01/23 01:10:28;;;;;;;24.77;12.73;;;2.60;99.90;;;;;;5069814;28;20041;-62
2023/01/23 01:12:55;;;;;;;25.27;12.45;;;2.70;99.90;;;;;;5071827;28;20083;-63
2023/01/23 01:15:22;;;;;;;27.10;13.55;;;2.60;99.90;;;;;;5072834;28;20155;-62
2023/01/23 01:17:48;;;;;;;25.70;14.23;;;2.60;99.90;;;;;;5066334;28;20104;-62
2023/01/23 01:20:16;;;;;;;26.33;13.35;;;2.60;99.90;;;;;;5057961;28;20540;-59
2023/01/23 01:22:43;;;;;;;26.70;13.25;;;2.70;99.90;;;;;;5058954;28;20102;-62
2023/01/23 01:25:10;;;;;;;27.33;13.70;;;2.60;99.90;;;;;;5054977;28;20132;-60
2023/01/23 01:27:37;;;;;;;27.75;13.77;;;2.60;99.90;;;;;;5074108;28;20084;-62
2023/01/23 01:30:05;;;;;;;29.23;14.77;;;2.60;99.90;;;;;;5064943;28;20496;-61
2023/01/23 01:32:31;;;;;;;30.88;14.55;;;2.70;99.90;;;;;;5055653;28;20122;-61
2023/01/23 01:34:58;;;;;;;25.85;14.23;;;2.60;99.90;;;;;;5053733;28;20110;-54
2023/01/23 01:37:26;;;;;;;27.52;13.82;;;2.70;99.90;;;;;;5055351;28;20455;-61
2023/01/23 01:39:53;;;;;;;24.17;13.75;;;2.60;99.90;;;;;;5066725;28;20092;-60
2023/01/23 01:42:20;;;;;;;25.33;13.35;;;2.60;99.90;;;;;;5065313;28;20496;-61
2023/01/23 01:44:54;;;;;;;29.88;13.65;;;2.60;99.90;;;;;;5059453;28;20083;-62
2023/01/23 01:47:21;;;;;;;26.67;13.15;;;2.70;99.90;;;;;;5060944;28;20092;-61
2023/01/23 01:49:48;;;;;;;28.98;14.80;;;2.70;99.90;;;;;;5061704;28;20083;-62
2023/01/23 01:52:15;;;;;;;27.50;14.43;;;2.70;99.90;;;;;;5054994;28;20088;-60
2023/01/23 01:54:44;;;;;;;26.23;13.73;;;2.70;99.90;;;;;;5062804;28;20447;-62
2023/01/23 01:57:13;;;;;;;30.90;14.85;;;2.70;99.90;;;;;;5060406;28;20091;-59
2023/01/23 01:59:41;;;;;;;29.70;14.57;;;2.70;99.90;;;;;;5072233;28;20593;-62
2023/01/23 02:02:11;;;;;;;29.30;14.32;;;2.70;99.90;;;;;;5067671;28;20095;-57
2023/01/23 02:04:41;;;;;;;28.17;14.98;;;2.70;99.90;;;;;;5070100;28;20106;-60
2023/01/23 02:07:09;;;;;;;24.73;14.90;;;2.60;99.90;;;;;;5060670;28;20166;-58
2023/01/23 02:09:36;;;;;;;26.95;13.55;;;2.70;99.90;;;;;;5070440;28;20129;-62
2023/01/23 02:12:04;;;;;;;31.58;15.68;;;2.70;99.90;;;;;;5067853;28;20091;-61
2023/01/23 02:14:31;;;;;;;32.85;15.45;;;2.70;99.90;;;;;;5057376;28;20044;-58
2023/01/23 02:16:59;;;;;;;27.23;14.48;;;2.70;99.90;;;;;;5053951;28;20106;-61
2023/01/23 02:19:40;;;;;;;29.15;15.27;;;2.60;99.90;;;;;;5054626;28;20045;-61
2023/01/23 02:22:13;;;;;;;26.20;14.63;;;2.70;99.90;;;;;;5069258;28;20137;-57
2023/01/23 02:24:42;;;;;;;31.67;15.13;;;2.70;99.90;;;;;;5063958;28;20133;-58
2023/01/23 02:27:10;;;;;;;30.25;14.98;;;2.60;99.90;;;;;;5053438;28;20049;-62
2023/01/23 02:29:42;;;;;;;25.45;14.75;;;2.60;99.90;;;;;;5053921;28;20045;-54
2023/01/23 02:32:09;;;;;;;28.75;14.25;;;2.70;99.90;;;;;;5067449;28;20063;-61
2023/01/23 02:34:36;;;;;;;28.27;14.88;;;2.70;99.90;;;;;;5059342;28;20053;-61
2023/01/23 02:37:03;;;;;;;25.60;14.27;;;2.70;99.90;;;;;;5061332;28;20550;-62
2023/01/23 02:39:30;;;;;;;25.80;13.95;;;2.70;99.90;;;;;;5053824;28;20133;-61
2023/01/23 02:41:57;;;;;;;28.50;14.48;;;2.70;99.90;;;;;;5052910;28;20558;-60
2023/01/23 02:44:26;;;;;;;23.52;13.57;;;2.70;99.90;;;;;;5072593;28;20111;-60
2023/01/23 02:46:53;;;;;;;26.08;13.50;;;2.70;99.90;;;;;;5071165;28;20462;-61
2023/01/23 02:49:20;;;;;;;27.95;15.00;;;2.70;99.90;;;;;;5073774;28;20051;-59
2023/01/23 02:51:47;;;;;;;27.60;13.80;;;2.70;99.90;;;;;;5065983;28;20080;-62
2023/01/23 02:54:14;;;;;;;26.15;13.48;;;2.70;99.90;;;;;;5057263;28;20094;-56
2023/01/23 02:56:41;;;;;;;28.05;14.77;;;2.70;99.90;;;;;;5063577;28;20040;-62
2023/01/23 03:01:54;;;;;;;26.63;13.40;;;2.70;99.90;;;;;;5069511;28;20467;-62
2023/01/23 03:04:20;;;;;;;30.75;13.63;;;2.70;99.90;;;;;;5066944;28;20095;-62
2023/01/23 03:06:47;;;;;;;23.92;13.05;;;2.70;99.90;;;;;;5059823;28;20094;-61
2023/01/23 03:09:15;;;;;;;29.27;13.50;;;2.70;99.90;;;;;;5069588;28;20422;-55
2023/01/23 03:11:43;;;;;;;23.50;14.02;;;2.70;99.90;;;;;;5059875;28;20502;-60
2023/01/23 03:14:10;;;;;;;26.02;13.82;;;2.70;99.90;;;;;;5052805;28;20110;-63
2023/01/23 03:16:37;;;;;;;25.38;13.10;;;2.70;99.90;;;;;;5058839;28;20383;-61
2023/01/23 03:19:07;;;;;;;28.67;13.77;;;2.70;99.90;;;;;;5056915;28;20044;-62
2023/01/23 03:21:35;;;;;;;27.55;13.23;;;2.70;99.90;;;;;;5070033;28;20114;-61
2023/01/23 03:24:03;;;;;;;24.98;13.85;;;2.70;99.90;;;;;;5071442;28;20110;-52
2023/01/23 03:26:30;;;;;;;27.17;13.45;;;2.70;99.90;;;;;;5065404;28;20084;-59
2023/01/23 03:31:41;;;;;;;27.48;14.38;;;2.70;99.90;;;;;;5063662;28;20048;-61
2023/01/23 03:34:09;;;;;;;24.33;13.70;;;2.70;99.90;;;;;;5070491;28;20088;-62
2023/01/23 03:36:37;;;;;;;30.40;15.02;;;2.70;99.90;;;;;;5068357;28;20550;-62
2023/01/23 03:41:49;;;;;;;27.13;13.43;;;2.70;99.90;;;;;;5065715;28;20049;-62
2023/01/23 03:44:18;;;;;;;26.27;12.52;;;2.70;99.90;;;;;;5070730;28;20408;-56
2023/01/23 03:46:45;;;;;;;29.23;14.65;;;2.70;99.90;;;;;;5065715;28;20063;-61
2023/01/23 03:49:13;;;;;;;28.98;13.77;;;2.70;99.90;;;;;;5051126;28;20130;-58
2023/01/23 03:51:40;;;;;;;29.67;14.70;;;2.70;99.90;;;;;;5052394;28;20085;-56
2023/01/23 03:54:07;;;;;;;26.33;14.27;;;2.70;99.90;;;;;;5053973;28;20103;-61
2023/01/23 03:56:34;;;;;;;30.33;14.07;;;2.70;99.90;;;;;;5052008;28;20556;-61
2023/01/23 03:59:01;;;;;;;26.92;14.40;;;2.70;99.90;;;;;;5057144;28;20084;-59
2023/01/23 04:01:27;;;;;;;24.35;14.82;;;2.80;99.90;;;;;;5069629;28;20094;-61
2023/01/23 04:03:54;;;;;;;25.67;13.73;;;2.70;99.90;;;;;;5051842;28;20488;-61
2023/01/23 04:06:22;;;;;;;26.45;13.70;;;2.70;99.90;;;;;;5052774;28;20073;-62
2023/01/23 04:08:49;;;;;;;28.10;14.35;;;2.70;99.90;;;;;;5051632;28;20091;-60
2023/01/23 04:11:16;;;;;;;26.83;15.30;;;2.70;99.90;;;;;;5053175;28;20560;-61
2023/01/23 04:13:42;;;;;;;29.25;14.48;;;2.70;99.90;;;;;;5052540;28;20137;-61
2023/01/23 04:16:09;;;;;;;25.05;14.75;;;2.70;99.90;;;;;;5070084;28;20141;-61
2023/01/23 04:18:36;;;;;;;24.50;13.68;;;2.70;99.90;;;;;;5054647;28;20422;-61
2023/01/23 04:21:03;;;;;;;26.48;14.32;;;2.70;99.90;;;;;;5051650;28;20080;-61
2023/01/23 04:23:31;;;;;;;27.95;15.65;;;2.70;99.90;;;;;;5052719;28;20507;-61
2023/01/23 04:25:58;;;;;;;27.30;15.27;;;2.70;99.90;;;;;;5051493;28;20049;-61
2023/01/23 04:28:25;;;;;;;27.33;14.93;;;2.70;99.90;;;;;;5051484;28;20142;-56
2023/01/23 04:30:52;;;;;;;30.58;14.75;;;2.70;99.90;;;;;;5058171;28;20048;-60
2023/01/23 04:33:18;;;;;;;27.13;16.10;;;2.70;99.90;;;;;;5055850;28;20083;-61
2023/01/23 04:35:53;;;;;;;27.80;14.18;;;2.70;99.90;;;;;;5071815;28;20049;-51
2023/01/23 04:38:20;;;;;;;25.77;15.48;;;2.70;99.90;;;;;;5061004;28;20564;-54
2023/01/23 04:40:48;;;;;;;28.77;15.25;;;2.70;99.90;;;;;;5071509;28;20092;-59
2023/01/23 04:43:15;;;;;;;27.70;12.90;;;2.70;99.90;;;;;;5061389;28;20124;-61
2023/01/23 04:45:42;;;;;;;23.58;14.35;;;2.70;99.90;;;;;;5072182;28;20044;-61
2023/01/23 04:48:09;;;;;;;27.55;15.05;;;2.70;99.90;;;;;;5072502;28;20607;-57
2023/01/23 04:50:36;;;;;;;31.35;14.98;;;2.70;99.90;;;;;;5074231;28;20087;-60
2023/01/23 04:53:03;;;;;;;24.63;14.85;;;2.70;99.90;;;;;;5056328;28;20088;-62
2023/01/23 04:55:30;;;;;;;31.65;15.75;;;2.70;99.90;;;;;;5054831;28;20136;-63
2023/01/23 04:57:58;;;;;;;27.17;15.07;;;2.70;99.90;;;;;;5061312;28;20044;-62
2023/01/23 05:00:27;;;;;;;28.90;15.65;;;2.70;99.90;;;;;;5054773;28;20064;-62
2023/01/23 05:02:54;;;;;;;26.92;16.25;;;2.70;99.90;;;;;;5070703;28;20098;-60
2023/01/23 05:05:21;;;;;;;26.85;15.25;;;2.70;99.90;;;;;;5056161;28;20095;-61
2023/01/23 05:07:48;;;;;;;33.20;16.95;;;2.70;99.90;;;;;;5056430;28;20041;-61
2023/01/23 05:10:15;;;;;;;38.00;15.98;;;2.70;99.90;;;;;;5063791;28;20088;-61
2023/01/23 05:12:42;;;;;;;29.95;15.65;;;2.70;99.90;;;;;;5059707;28;20060;-41
2023/01/23 05:15:10;;;;;;;30.35;16.63;;;2.70;99.90;;;;;;5073798;28;20060;-62
2023/01/23 05:17:37;;;;;;;32.88;15.60;;;2.70;99.90;;;;;;5060642;28;20080;-57
2023/01/23 05:20:05;;;;;;;26.60;15.90;;;2.70;99.90;;;;;;5067285;28;20136;-62
2023/01/23 05:22:32;;;;;;;26.92;15.98;;;2.70;99.90;;;;;;5063554;28;20084;-62
2023/01/23 05:24:59;;;;;;;32.95;16.38;;;2.70;99.90;;;;;;5065834;28;20133;-62
2023/01/23 05:27:26;;;;;;;27.27;15.38;;;2.70;99.90;;;;;;5074063;28;20135;-61
2023/01/23 05:29:52;;;;;;;31.55;16.30;;;2.70;99.90;;;;;;5075172;28;20096;-62
2023/01/23 05:32:20;;;;;;;26.27;15.48;;;2.70;99.90;;;;;;5069328;28;20076;-63
2023/01/23 05:34:47;;;;;;;35.25;15.55;;;2.70;99.90;;;;;;5069527;28;20114;-52
2023/01/23 05:37:14;;;;;;;27.23;15.60;;;2.70;99.90;;;;;;5053889;28;20048;-61
2023/01/23 05:39:41;;;;;;;33.95;15.88;;;2.70;99.90;;;;;;5055710;28;20049;-62
2023/01/23 05:42:08;;;;;;;27.75;15.23;;;2.80;99.90;;;;;;5056947;28;20045;-62
2023/01/23 05:44:34;;;;;;;28.17;14.63;;;2.70;99.90;;;;;;5063097;28;20122;-61
2023/01/23 05:47:01;;;;;;;34.13;15.65;;;2.70;99.90;;;;;;5055165;28;20088;-62
2023/01/23 05:49:29;;;;;;;33.38;16.27;;;2.70;99.90;;;;;;5070072;28;20484;-61
2023/01/23 05:51:56;;;;;;;31.92;16.80;;;2.70;99.90;;;;;;5055480;28;20098;-58
2023/01/23 05:54:23;;;;;;;30.83;16.30;;;2.70;99.90;;;;;;5067511;28;20091;-61
2023/01/23 05:56:50;;;;;;;30.75;16.13;;;2.70;99.90;;;;;;5067007;28;20475;-62
2023/01/23 05:59:17;;;;;;;27.15;15.07;;;2.70;99.90;;;;;;5058048;28;20053;-62
2023/01/23 06:01:43;;;;;;;28.60;15.73;;;2.70;99.90;;;;;;5073941;28;20056;-56
2023/01/23 06:04:12;;;;;;;31.42;15.82;;;2.70;99.90;;;;;;5067384;28;20106;-58
2023/01/23 06:06:40;;;;;;;29.20;16.02;;;2.70;99.90;;;;;;5065480;28;20052;-62
2023/01/23 06:09:07;;;;;;;29.83;15.63;;;2.70;99.90;;;;;;5066571;28;20053;-61
2023/01/23 06:11:34;;;;;;;31.80;16.08;;;2.70;99.90;;;;;;5059099;28;20128;-60
2023/01/23 06:14:01;;;;;;;24.63;15.32;;;2.80;99.90;;;;;;5053871;28;20417;-63
2023/01/23 06:16:28;;;;;;;27.27;15.57;;;2.70;99.90;;;;;;5058466;28;20527;-61
2023/01/23 06:18:55;;;;;;;23.02;14.63;;;2.70;99.90;;;;;;5060723;28;20064;-62
2023/01/23 06:21:22;;;;;;;26.65;14.57;;;2.70;99.90;;;;;;5062914;28;20091;-61
2023/01/23 06:23:50;;;;;;;27.20;15.98;;;2.70;99.90;;;;;;5053604;28;20095;-62
2023/01/23 06:26:17;;;;;;;27.63;16.08;;;2.70;99.90;;;;;;5052569;28;20083;-62
2023/01/23 06:28:43;;;;;;;29.13;16.10;;;2.70;99.90;;;;;;5053052;28;20118;-62
2023/01/23 06:31:10;;;;;;;28.40;16.15;;;2.70;99.90;;;;;;5052117;28;20053;-59
2023/01/23 06:33:37;;;;;;;26.83;15.38;;;2.70;99.90;;;;;;5066337;28;20497;-61
2023/01/23 06:36:05;;;;;;;25.48;15.00;;;2.70;99.90;;;;;;5069940;28;20080;-63
2023/01/23 06:38:32;;;;;;;25.77;15.02;;;2.70;99.90;;;;;;5053530;28;20088;-63
2023/01/23 06:41:00;;;;;;;25.92;15.02;;;2.70;99.90;;;;;;5052699;28;20053;-62
2023/01/23 06:43:27;;;;;;;25.80;15.20;;;2.70;99.90;;;;;;5052828;28;20053;-59
2023/01/23 06:45:54;;;;;;;23.27;14.02;;;2.70;99.90;;;;;;5053754;28;20155;-60
2023/01/23 06:48:20;;;;;;;26.55;15.40;;;2.70;99.90;;;;;;5068038;28;20201;-60
2023/01/23 06:50:47;;;;;;;28.42;15.32;;;2.70;99.90;;;;;;5073320;28;20053;-61
2023/01/23 06:53:15;;;;;;;25.15;14.98;;;2.70;99.90;;;;;;5073735;28;20141;-61
2023/01/23 06:55:41;;;;;;;31.92;15.90;;;2.70;99.90;;;;;;5073603;28;20102;-59
2023/01/23 06:58:09;;;;;;;28.13;15.73;;;2.70;99.90;;;;;;5071687;28;20519;-62
2023/01/23 07:00:36;;;;;;;26.80;15.88;;;2.70;99.90;;;;;;5070602;28;20458;-62
2023/01/23 07:03:03;;;;;;;27.02;16.13;;;2.70;99.90;;;;;;5070930;28;20094;-61
2023/01/23 07:05:30;;;;;;;30.05;16.17;;;2.70;99.90;;;;;;5073276;28;20087;-62
2023/01/23 07:07:57;;;;;;;30.88;16.58;;;2.70;99.90;;;;;;5072276;28;20110;-61
2023/01/23 07:10:25;;;;;;;27.27;15.73;;;2.70;99.90;;;;;;5072156;28;20053;-62
2023/01/23 07:12:52;;;;;;;25.45;15.38;;;2.70;99.90;;;;;;5073316;28;20048;-62
2023/01/23 07:15:20;;;;;;;28.70;15.55;;;2.70;99.90;;;;;;5072005;28;20572;-61
2023/01/23 07:17:46;;;;;;;26.27;15.45;;;2.70;99.90;;;;;;5070902;28;20094;-62
2023/01/23 07:20:14;;;;;;;25.42;15.70;;;2.70;99.90;;;;;;5072734;28;20496;-61
2023/01/23 07:22:41;;;;;;;26.23;15.30;;;2.70;99.90;;;;;;5073126;28;20389;-62
2023/01/23 07:25:08;;;;;;;25.13;15.77;;;2.70;99.90;;;;;;5062763;28;20053;-58
2023/01/23 07:27:35;;;;;;;29.90;16.83;;;2.70;99.90;;;;;;5052229;28;20084;-59
2023/01/23 07:30:02;;;;;;;34.55;15.77;;;2.70;99.90;;;;;;5052772;28;20049;-62
2023/01/23 07:32:30;;;;;;;27.13;16.83;;;2.70;99.90;;;;;;5068988;28;20470;-61
2023/01/23 07:34:57;;;;;;;28.55;16.90;;;2.70;99.90;;;;;;5072038;28;20084;-62
2023/01/23 07:37:24;;;;;;;32.58;16.50;;;2.70;99.90;;;;;;5071730;28;20140;-61
2023/01/23 07:39:52;;;;;;;28.98;16.48;;;2.70;99.90;;;;;;5071604;28;20048;-61
2023/01/23 07:42:19;;;;;;;26.23;15.40;;;2.70;99.90;;;;;;5072865;28;20047;-63
2023/01/23 07:44:45;;;;;;;26.38;16.83;;;2.70;99.90;;;;;;5069928;28;20190;-58
2023/01/23 07:47:12;;;;;;;26.75;14.95;;;2.70;99.90;;;;;;5071219;28;20546;-62
2023/01/23 07:49:40;;;;;;;29.45;15.95;;;2.70;99.90;;;;;;5072855;28;20107;-63
2023/01/23 07:52:07;;;;;;;25.25;16.17;;;2.70;99.90;;;;;;5072659;28;20094;-61
2023/01/23 07:54:34;;;;;;;24.75;15.75;;;2.70;99.90;;;;;;5071939;28;20083;-62
2023/01/23 07:57:01;;;;;;;25.85;16.40;;;2.70;99.90;;;;;;5071524;28;20128;-62
2023/01/23 07:59:28;;;;;;;28.48;15.90;;;2.70;99.90;;;;;;5070194;28;20534;-57
2023/01/23 08:01:54;;;;;;;32.58;16.13;;;2.70;99.90;;;;;;5072326;28;20052;-62
2023/01/23 08:04:21;;;;;;;28.55;15.55;;;2.70;99.90;;;;;;5072757;28;20084;-62
2023/01/23 08:06:49;;;;;;;27.10;15.93;;;2.70;99.90;;;;;;5071380;28;20496;-62
2023/01/23 08:09:16;;;;;;;30.88;16.02;;;2.80;99.90;;;;;;5072475;28;20094;-60
2023/01/23 08:11:43;;;;;;;29.25;16.58;;;2.80;99.90;;;;;;5075223;28;20079;-62
2023/01/23 08:14:11;;;;;;;29.50;16.33;;;2.80;99.90;;;;;;5074172;28;20469;-62
2023/01/23 08:16:37;;;;;;;28.20;15.63;;;2.80;99.90;;;;;;5076161;28;20558;-62
2023/01/23 08:19:07;;;;;;;25.80;15.02;;;2.90;99.90;;;;;;5074662;28;20044;-62
2023/01/23 08:21:33;;;;;;;24.48;15.65;;;2.80;99.90;;;;;;5076571;28;20053;-62
2023/01/23 08:24:03;;;;;;;30.70;16.98;;;2.80;99.90;;;;;;5069323;28;20098;-62
2023/01/23 08:26:30;;;;;;;28.10;16.05;;;2.80;99.90;;;;;;5055168;28;20053;-61
2023/01/23 08:28:57;;;;;;;26.02;15.98;;;2.80;99.90;;;;;;5085450;28;20271;-60
2023/01/23 08:31:24;;;;;;;26.58;16.23;;;2.80;99.90;;;;;;5075201;28;20122;-62
2023/01/23 08:33:50;;;;;;;25.48;15.68;;;2.80;99.90;;;;;;5076349;28;20549;-59
2023/01/23 08:36:17;;;;;;;29.15;16.30;;;2.80;99.90;;;;;;5075142;28;20089;-63
2023/01/23 08:38:44;;;;;;;26.42;15.90;;;2.80;99.90;;;;;;5061846;28;20140;-62
2023/01/23 08:41:12;;;;;;;26.35;16.02;;;2.80;99.90;;;;;;5058488;28;20472;-62
2023/01/23 08:43:40;;;;;;;24.25;15.68;;;2.80;99.90;;;;;;5072976;28;20106;-60
2023/01/23 08:46:07;;;;;;;25.05;14.73;;;2.80;99.90;;;;;;5075195;28;20052;-63
2023/01/23 08:48:34;;;;;;;24.92;14.30;;;2.90;99.90;;;;;;5076143;28;20092;-61
2023/01/23 08:51:02;;;;;;;24.50;14.57;;;2.90;99.90;;;;;;5075715;28;20049;-58
2023/01/23 08:53:29;;;;;;;25.40;15.27;;;2.90;99.90;;;;;;5075244;28;20095;-62
2023/01/23 08:55:59;;;;;;;20.63;14.10;;;2.90;99.90;;;;;;5075829;28;20083;-62
2023/01/23 08:58:28;;;;;;;23.85;15.35;;;2.90;99.90;;;;;;5072201;28;20044;-61
2023/01/23 09:00:54;;;;;;;24.27;15.18;;;3.00;99.90;;;;;;5074359;28;20045;-63
2023/01/23 09:03:21;;;;;;;19.98;14.23;;;3.00;99.90;;;;;;5075950;28;20131;-61
2023/01/23 09:05:48;;;;;;;22.52;13.75;;;3.00;99.90;;;;;;5066058;28;20485;-62
2023/01/23 09:08:15;;;;;;;21.77;12.50;;;3.00;99.90;;;;;;5054504;28;20088;-54
2023/01/23 09:10:41;;;;;;;25.90;14.82;;;3.00;99.90;;;;;;5073741;28;20084;-62
2023/01/23 09:13:08;;;;;;;24.88;14.75;;;3.10;99.90;;;;;;5071534;28;20550;-61
2023/01/23 09:15:37;;;;;;;23.27;13.25;;;3.10;99.90;;;;;;5066446;28;20146;-62
2023/01/23 09:18:04;;;;;;;23.08;12.55;;;3.10;99.90;;;;;;5055692;28;20464;-62
2023/01/23 09:20:31;;;;;;;18.80;12.50;;;3.10;99.90;;;;;;5054899;28;20455;-60
2023/01/23 09:22:58;;;;;;;17.60;12.77;;;3.10;99.90;;;;;;5055461;28;20092;-61
2023/01/23 09:25:24;;;;;;;17.65;12.45;;;3.10;99.90;;;;;;5054324;28;20091;-62
2023/01/23 09:27:51;;;;;;;22.58;14.35;;;3.20;99.90;;;;;;5068783;28;20076;-56
2023/01/23 09:30:18;;;;;;;20.30;11.05;;;3.20;99.90;;;;;;5073853;28;20484;-62
2023/01/23 09:32:47;;;;;;;19.83;11.57;;;3.20;99.90;;;;;;5075316;28;20443;-61
2023/01/23 09:35:13;;;;;;;18.95;12.52;;;3.20;99.90;;;;;;5075207;28;20088;-62
2023/01/23 09:40:25;;;;;;;15.77;10.75;;;3.20;99.90;;;;;;5068639;28;20135;-62
2023/01/23 09:42:51;;;;;;;20.52;11.07;;;3.30;99.90;;;;;;5072524;28;20067;-58
2023/01/23 09:45:20;;;;;;;18.05;10.30;;;3.30;99.90;;;;;;5073787;28;20098;-61
2023/01/23 09:47:51;;;;;;;21.48;11.52;;;3.30;99.90;;;;;;5074952;28;20102;-61
2023/01/23 09:50:20;;;;;;;18.07;11.57;;;3.30;99.90;;;;;;5074844;28;20056;-59
2023/01/23 09:52:48;;;;;;;16.80;10.60;;;3.40;99.90;;;;;;5074570;28;20088;-61
2023/01/23 09:55:17;;;;;;;18.63;10.63;;;3.40;99.90;;;;;;5074827;28;20459;-62
2023/01/23 09:57:45;;;;;;;18.55;10.55;;;3.40;99.90;;;;;;5071785;28;20091;-61
2023/01/23 10:00:25;;;;;;;20.42;9.82;;;3.40;99.90;;;;;;5073425;28;20059;-62
2023/01/23 10:02:53;;;;;;;13.60;10.20;;;3.40;99.90;;;;;;5056560;28;20666;-61
2023/01/23 10:05:22;;;;;;;14.88;10.05;;;3.40;99.90;;;;;;5073511;28;20049;-58
2023/01/23 10:07:55;;;;;;;18.05;10.25;;;3.40;99.90;;;;;;5074320;28;20675;-62
2023/01/23 10:10:40;;;;;;;16.70;9.82;;;3.40;99.90;;;;;;5073465;28;20529;-59
2023/01/23 10:13:08;;;;;;;14.00;9.50;;;3.50;99.90;;;;;;5053466;28;20060;-61
2023/01/23 10:15:42;;;;;;;16.85;10.05;;;3.50;99.90;;;;;;5057011;28;20048;-57
2023/01/23 10:18:16;;;;;;;16.55;9.93;;;3.50;99.90;;;;;;5053964;28;20057;-60
2023/01/23 10:20:51;;;;;;;17.92;9.60;;;3.50;99.90;;;;;;5053525;28;20139;-60
2023/01/23 10:23:32;;;;;;;14.77;9.45;;;3.50;99.90;;;;;;5054315;28;20057;-60
2023/01/23 10:25:59;;;;;;;13.77;9.33;;;3.60;99.90;;;;;;5059046;28;20137;-57
2023/01/23 10:28:29;;;;;;;18.70;10.57;;;3.60;99.90;;;;;;5068470;28;20052;-56
2023/01/23 10:30:58;;;;;;;14.95;9.82;;;3.60;99.90;;;;;;5053926;28;20481;-59
2023/01/23 10:33:30;;;;;;;12.55;9.10;;;3.60;99.90;;;;;;5052007;28;20140;-61
2023/01/23 10:35:58;;;;;;;15.20;8.98;;;3.60;99.90;;;;;;5054085;28;20047;-58
2023/01/23 10:38:27;;;;;;;12.88;9.40;;;3.70;99.90;;;;;;5054161;28;20045;-61
2023/01/23 10:43:38;;;;;;;19.65;9.02;;;3.70;99.90;;;;;;5072103;28;20044;-60
2023/01/23 10:46:10;;;;;;;12.98;8.52;;;3.60;99.90;;;;;;5073091;28;20091;-60
2023/01/23 10:48:45;;;;;;;15.75;9.18;;;3.70;99.90;;;;;;5072511;28;20611;-61
2023/01/23 10:51:35;;;;;;;15.32;8.93;;;3.70;99.90;;;;;;5072776;28;20048;-59
2023/01/23 10:54:07;;;;;;;14.88;9.52;;;3.70;99.90;;;;;;5071512;28;20061;-60
2023/01/23 10:56:34;;;;;;;14.73;9.20;;;3.70;99.90;;;;;;5071209;28;20141;-59
2023/01/23 10:59:01;;;;;;;14.30;9.13;;;3.70;99.90;;;;;;5073265;28;20091;-55
2023/01/23 11:01:30;;;;;;;13.32;8.32;;;3.70;99.90;;;;;;5073322;28;20048;-62
2023/01/23 11:04:01;;;;;;;16.25;8.95;;;3.80;99.90;;;;;;5072330;28;20080;-55
2023/01/23 11:06:27;;;;;;;13.57;8.07;;;3.70;99.90;;;;;;5072673;28;20103;-57
2023/01/23 11:08:56;;;;;;;13.60;8.65;;;3.80;99.90;;;;;;5052868;28;20698;-60
2023/01/23 11:11:24;;;;;;;13.82;8.70;;;3.80;99.90;;;;;;5068999;28;20106;-59
2023/01/23 11:14:02;;;;;;;14.05;8.73;;;3.80;99.90;;;;;;5073276;28;20400;-60
2023/01/23 11:16:29;;;;;;;20.20;10.68;;;3.80;99.90;;;;;;5073089;28;20393;-60
2023/01/23 11:19:03;;;;;;;15.68;9.43;;;3.80;99.90;;;;;;5072207;28;20102;-59
2023/01/23 11:21:32;;;;;;;11.95;8.57;;;3.80;99.90;;;;;;5073225;28;20044;-59
2023/01/23 11:24:10;;;;;;;13.15;8.20;;;3.80;99.90;;;;;;5073095;28;20068;-60
2023/01/23 11:26:37;;;;;;;12.25;8.75;;;3.80;99.90;;;;;;5072474;28;20049;-61
2023/01/23 11:29:19;;;;;;;15.02;9.10;;;3.90;99.90;;;;;;5073007;28;20052;-58
2023/01/23 11:31:46;;;;;;;;;;;3.90;99.90;;;;;;5071233;28;20123;-60
2023/01/23 11:34:14;;;;;;;10.98;7.35;;;4.00;99.90;;;;;;5073364;28;20003;-59
2023/01/23 11:36:43;;;;;;;11.80;8.10;;;3.90;99.90;;;;;;5072941;28;20385;-56
2023/01/23 11:39:15;;;;;;;11.98;8.02;;;4.00;99.90;;;;;;5070961;28;20094;-60
2023/01/23 11:41:43;;;;;;;15.18;8.10;;;3.90;99.90;;;;;;5070062;28;20400;-60
2023/01/23 11:44:14;;;;;;;12.88;8.18;;;3.90;99.90;;;;;;5072628;28;20053;-60
2023/01/23 11:46:49;;;;;;;10.93;8.38;;;4.00;99.90;;;;;;5072026;28;20117;-60
2023/01/23 11:49:24;;;;;;;11.70;7.50;;;4.00;99.90;;;;;;5072825;28;20488;-60
2023/01/23 11:51:56;;;;;;;13.10;8.32;;;4.00;99.90;;;;;;5072694;28;20092;-60
2023/01/23 11:54:37;;;;;;;13.38;8.18;;;4.00;99.90;;;;;;5071077;28;20079;-60
2023/01/23 11:57:09;;;;;;;15.15;8.95;;;4.00;99.90;;;;;;5071038;28;20084;-59
2023/01/23 12:00:06;;;;;;;14.85;8.82;;;4.00;99.90;;;;;;5061719;28;20084;-61
2023/01/23 12:03:00;;;;;;;13.07;9.02;;;4.10;99.90;;;;;;5052472;28;20472;-59
2023/01/23 12:05:46;;;;;;;13.93;8.80;;;4.00;99.90;;;;;;5054499;28;20052;-59
2023/01/23 12:08:19;;;;;;;12.73;8.88;;;4.00;99.90;;;;;;5051762;28;20213;-61
2023/01/23 12:10:53;;;;;;;13.85;9.02;;;4.00;99.90;;;;;;5070502;28;20084;-58
2023/01/23 12:13:29;;;;;;;15.23;8.50;;;4.00;99.90;;;;;;5071349;28;20080;-59
2023/01/23 12:16:02;;;;;;;12.73;8.88;;;4.00;99.90;;;;;;5072608;28;20118;-59
2023/01/23 12:18:33;;;;;;;13.68;9.75;;;4.00;99.90;;;;;;5072851;28;20052;-59
2023/01/23 12:21:05;;;;;;;13.52;9.73;;;4.10;99.90;;;;;;5071084;28;20088;-60
2023/01/23 12:23:50;;;;;;;11.95;8.88;;;4.00;99.90;;;;;;5071261;28;20087;-58
2023/01/23 12:26:19;;;;;;;12.27;9.07;;;4.10;99.90;;;;;;5070896;28;20053;-60
2023/01/23 12:29:09;;;;;;;13.23;8.80;;;4.10;99.90;;;;;;5070796;28;20500;-59
2023/01/23 12:31:42;;;;;;;14.07;9.80;;;4.10;99.90;;;;;;5068549;28;20084;-50
2023/01/23 12:34:25;;;;;;;11.82;8.77;;;4.10;99.90;;;;;;5072287;28;20053;-60
2023/01/23 12:37:05;;;;;;;13.38;9.45;;;4.10;99.90;;;;;;5071776;28;20079;-60
2023/01/23 12:39:54;;;;;;;12.63;9.38;;;4.10;99.90;;;;;;5072387;28;20056;-59
2023/01/23 12:42:24;;;;;;;16.15;9.57;;;4.10;99.90;;;;;;5071145;28;20477;-59
2023/01/23 12:44:55;;;;;;;12.90;9.40;;;4.10;99.90;;;;;;5069428;28;20830;-59
2023/01/23 12:47:23;;;;;;;16.17;9.88;;;4.10;99.90;;;;;;5070823;28;20040;-59
2023/01/23 12:49:52;;;;;;;14.85;10.05;;;4.10;99.90;;;;;;5071427;28;20439;-59
2023/01/23 12:52:22;;;;;;;15.35;10.40;;;4.10;99.90;;;;;;5073807;28;20049;-59
2023/01/23 12:54:51;;;;;;;12.55;9.50;;;4.20;99.90;;;;;;5070719;28;20153;-59
2023/01/23 12:57:38;;;;;;;12.18;9.15;;;4.20;99.90;;;;;;5073306;28;20094;-56
2023/01/23 13:00:08;;;;;;;13.77;9.68;;;4.20;99.90;;;;;;5071949;28;20480;-58